createdAt,value
2023-03-16T00:53:48.250Z,100866.44
2023-03-16T00:56:37.843Z,100845.50
2023-03-16T00:59:29.988Z,100801.22
2023-03-16T01:06:30.520Z,100874.84
2023-03-16T01:14:57.244Z,100845.34
2023-03-16T01:22:05.090Z,100843.09
2023-03-16T01:27:34.330Z,100818.09
2023-03-16T01:33:08.545Z,100831.44
2023-03-16T01:35:45.231Z,100864.75
2023-03-16T01:38:25.680Z,100747.28
2023-03-16T01:41:13.684Z,100845.78
2023-03-16T01:44:13.646Z,100806.31
2023-03-16T01:50:23.321Z,100844.34
2023-03-16T01:53:10.944Z,100757.66
2023-03-16T02:13:45.963Z,100830.16
2023-03-16T03:45:59.054Z,100774.25
2023-03-16T06:35:50.551Z,100705.22
2023-03-16T07:07:14.488Z,100719.66
2023-03-16T07:10:02.090Z,100730.34
2023-03-16T07:12:44.859Z,100683.94
2023-03-16T07:15:17.542Z,100722.06
2023-03-16T07:18:05.889Z,100728.22
2023-03-16T07:20:36.070Z,100688.22
2023-03-16T07:23:44.637Z,100688.53
2023-03-16T07:26:14.155Z,100719.50
2023-03-16T07:28:43.538Z,100721.66
2023-03-16T07:31:13.107Z,100699.59
2023-03-16T07:33:49.830Z,100729.28
2023-03-16T07:36:24.239Z,100680.84
2023-03-16T07:38:55.460Z,100738.16
2023-03-16T07:41:26.057Z,100717.00
2023-03-16T07:43:56.576Z,100738.84
2023-03-16T07:46:27.630Z,100708.84
2023-03-16T07:48:56.487Z,100729.31
2023-03-16T07:51:28.510Z,100735.19
2023-03-16T07:54:00.890Z,100729.53
2023-03-16T07:56:42.263Z,100703.34
2023-03-16T07:59:23.748Z,100718.13
2023-03-16T08:01:53.810Z,100713.94
2023-03-16T08:04:22.690Z,100723.81
2023-03-16T08:06:52.444Z,100718.44
2023-03-16T08:09:22.084Z,100695.34
2023-03-16T08:11:57.856Z,100711.63
2023-03-16T08:14:26.303Z,100710.09
2023-03-16T08:16:55.099Z,100706.53
2023-03-16T08:19:23.499Z,100698.25
2023-03-16T08:22:01.386Z,100687.19
2023-03-16T08:24:32.348Z,100688.19
2023-03-16T08:27:02.338Z,100705.19
2023-03-16T08:29:34.064Z,100685.16
2023-03-16T08:32:03.715Z,100701.22
2023-03-16T08:34:31.981Z,100672.78
2023-03-16T08:37:03.916Z,100694.72
2023-03-16T08:39:38.259Z,100692.34
2023-03-16T08:42:09.576Z,100686.97
2023-03-16T08:44:40.117Z,100657.59
2023-03-16T08:47:12.515Z,100669.97
2023-03-16T08:49:42.598Z,100681.34
2023-03-16T08:52:13.062Z,100638.69
2023-03-16T08:54:59.769Z,100684.88
2023-03-16T08:57:31.505Z,100685.28
2023-03-16T09:00:00.814Z,100676.47
2023-03-16T09:02:30.375Z,100680.22
2023-03-16T09:04:59.562Z,100642.44
2023-03-16T09:07:28.385Z,100665.59
2023-03-16T09:10:00.634Z,100668.06
2023-03-16T09:12:33.676Z,100663.84
2023-03-16T09:15:07.463Z,100668.75
2023-03-16T09:17:45.239Z,100678.16
2023-03-16T09:20:26.923Z,100664.56
2023-03-16T09:22:59.241Z,100670.06
2023-03-16T09:25:32.491Z,100651.94
2023-03-16T09:28:02.449Z,100652.75
2023-03-16T09:30:35.222Z,100664.38
2023-03-16T09:33:04.283Z,100635.72
2023-03-16T09:35:35.011Z,100657.03
2023-03-16T09:38:06.781Z,100648.44
2023-03-16T09:40:40.077Z,100649.31
2023-03-16T09:43:31.268Z,100625.94
2023-03-16T09:46:09.932Z,100643.44
2023-03-16T09:48:39.899Z,100636.69
2023-03-16T09:51:16.788Z,100641.16
2023-03-16T09:53:47.194Z,100634.38
2023-03-16T09:56:30.708Z,100619.69
2023-03-16T09:59:03.305Z,100615.69
2023-03-16T10:01:45.037Z,100606.72
2023-03-16T10:04:28.036Z,100619.03
2023-03-16T10:07:07.652Z,100596.25
2023-03-16T10:09:38.941Z,100628.63
2023-03-16T10:12:13.656Z,100615.81
2023-03-16T10:14:48.249Z,100615.94
2023-03-16T10:17:19.957Z,100620.16
2023-03-16T10:19:53.027Z,100563.59
2023-03-16T10:22:26.910Z,100626.59
2023-03-16T10:25:04.406Z,100618.78
2023-03-16T10:27:47.347Z,100612.94
2023-03-16T10:30:45.869Z,100620.94
2023-03-16T10:33:25.258Z,100558.56
2023-03-16T10:35:58.285Z,100603.81
2023-03-16T10:38:47.571Z,100623.88
2023-03-16T10:41:26.879Z,100562.06
2023-03-16T10:44:00.160Z,100614.88
2023-03-16T10:46:29.968Z,100616.09
2023-03-16T10:49:01.914Z,100573.69
2023-03-16T10:51:39.029Z,100595.69
2023-03-16T10:54:23.242Z,100564.31
2023-03-16T10:56:52.441Z,100582.91
2023-03-16T10:59:37.597Z,100565.81
2023-03-16T11:02:18.732Z,100605.47
2023-03-16T11:04:48.126Z,100594.00
2023-03-16T11:07:24.325Z,100575.66
2023-03-16T11:09:57.021Z,100595.81
2023-03-16T11:12:29.005Z,100608.41
2023-03-16T11:15:07.488Z,100601.47
2023-03-16T11:17:42.043Z,100603.13
2023-03-16T11:20:17.985Z,100588.34
2023-03-16T11:22:49.057Z,100591.31
2023-03-16T11:25:28.204Z,100561.69
2023-03-16T11:28:13.868Z,100574.59
2023-03-16T11:30:53.784Z,100572.31
2023-03-16T11:33:27.295Z,100569.13
2023-03-16T11:36:10.123Z,100551.03
2023-03-16T11:38:52.177Z,100573.13
2023-03-16T11:41:29.952Z,100541.34
2023-03-16T11:44:02.301Z,100561.19
2023-03-16T11:46:43.360Z,100536.56
2023-03-16T11:49:38.399Z,100547.84
2023-03-16T11:52:17.380Z,100493.25
2023-03-16T11:55:03.256Z,100551.63
2023-03-16T11:57:49.591Z,100515.16
2023-03-16T12:00:39.173Z,100508.31
2023-03-16T12:03:42.463Z,100534.09
2023-03-16T12:06:33.806Z,100521.56
2023-03-16T12:09:52.294Z,100518.00
2023-03-16T12:12:37.768Z,100525.25
2023-03-16T12:15:27.593Z,100515.16
2023-03-16T12:18:09.518Z,100431.47
2023-03-16T12:21:03.813Z,100515.75
2023-03-16T12:23:37.429Z,100521.44
2023-03-16T12:26:06.097Z,100487.69
2023-03-16T12:28:37.689Z,100468.75
2023-03-16T12:31:13.192Z,100492.63
2023-03-16T12:34:00.800Z,100460.56
2023-03-16T12:36:56.700Z,100472.94
2023-03-16T12:39:45.872Z,100488.53
2023-03-16T12:42:35.889Z,100472.19
2023-03-16T12:45:05.602Z,100423.00
2023-03-16T12:47:44.756Z,100482.50
2023-03-16T12:50:17.257Z,100488.16
2023-03-16T12:52:49.410Z,100484.28
2023-03-16T12:55:22.625Z,100487.56
2023-03-16T12:58:03.760Z,100471.41
2023-03-16T13:00:39.048Z,100471.53
2023-03-16T13:03:19.413Z,100442.66
2023-03-16T13:05:53.615Z,100455.44
2023-03-16T13:08:23.939Z,100432.72
2023-03-16T13:11:03.555Z,100446.75
2023-03-16T13:13:33.000Z,100442.81
2023-03-16T13:16:09.655Z,100449.22
2023-03-16T13:18:41.861Z,100451.56
2023-03-16T13:21:21.841Z,100444.44
2023-03-16T13:24:16.304Z,100421.66
2023-03-16T13:26:48.767Z,100431.25
2023-03-16T13:29:31.047Z,100417.84
2023-03-16T13:32:05.107Z,100424.03
2023-03-16T13:34:40.480Z,100406.75
2023-03-16T13:37:16.242Z,100408.06
2023-03-16T13:39:57.938Z,100427.38
2023-03-16T13:42:29.583Z,100420.81
2023-03-16T13:44:59.766Z,100389.81
2023-03-16T13:47:29.254Z,100402.59
2023-03-16T13:50:01.879Z,100415.06
2023-03-16T13:52:37.072Z,100383.22
2023-03-16T13:55:32.332Z,100408.44
2023-03-16T13:58:03.863Z,100399.78
2023-03-16T14:00:36.999Z,100392.34
2023-03-16T14:03:20.444Z,100399.50
2023-03-16T14:05:50.032Z,100397.28
2023-03-16T14:08:20.084Z,100392.41
2023-03-16T14:10:53.204Z,100361.50
2023-03-16T14:13:36.162Z,100359.47
2023-03-16T14:16:14.636Z,100384.00
2023-03-16T14:18:48.817Z,100385.56
2023-03-16T14:21:24.234Z,100383.72
2023-03-16T14:23:55.083Z,100365.88
2023-03-16T14:26:27.688Z,100361.00
2023-03-16T14:29:01.973Z,100365.97
2023-03-16T14:31:37.014Z,100360.19
2023-03-16T14:34:12.090Z,100353.22
2023-03-16T14:36:41.825Z,100331.78
2023-03-16T14:39:16.961Z,100352.00
2023-03-16T14:41:50.656Z,100330.00
2023-03-16T14:44:24.821Z,100337.09
2023-03-16T14:46:56.760Z,100358.56
2023-03-16T14:49:31.445Z,100327.41
2023-03-16T14:52:03.582Z,100329.69
2023-03-16T14:54:35.948Z,100348.16
2023-03-16T14:57:14.442Z,100329.59
2023-03-16T14:59:43.545Z,100328.00
2023-03-16T15:02:18.779Z,100322.31
2023-03-16T15:04:51.604Z,100311.28
2023-03-16T15:07:45.575Z,100310.59
2023-03-16T15:10:31.009Z,100313.69
2023-03-16T15:14:04.965Z,100314.63
2023-03-16T15:16:49.897Z,100306.13
2023-03-16T15:19:19.697Z,100309.00
2023-03-16T15:21:49.296Z,100290.38
2023-03-16T15:24:17.595Z,100312.00
2023-03-16T15:26:47.221Z,100276.50
2023-03-16T15:29:19.888Z,100309.75
2023-03-16T15:31:54.579Z,100267.53
2023-03-16T15:34:25.281Z,100292.00
2023-03-16T15:36:55.300Z,100291.72
2023-03-16T15:39:28.026Z,100228.56
2023-03-16T15:41:56.576Z,100273.88
2023-03-16T15:44:27.248Z,100286.34
2023-03-16T15:46:57.142Z,100292.41
2023-03-16T15:49:34.976Z,100292.38
2023-03-16T15:52:08.034Z,100287.44
2023-03-16T15:54:39.192Z,100270.31
2023-03-16T15:57:08.247Z,100241.75
2023-03-16T15:59:37.974Z,100283.50
2023-03-16T16:02:40.929Z,100255.84
2023-03-16T16:05:11.044Z,100270.16
2023-03-16T16:07:39.563Z,100271.47
2023-03-16T16:10:12.304Z,100257.09
2023-03-16T16:12:40.777Z,100283.19
2023-03-16T16:15:20.708Z,100267.63
2023-03-16T16:18:18.672Z,100274.47
2023-03-16T16:20:42.660Z,100274.25
2023-03-16T16:23:14.484Z,100268.91
2023-03-16T16:25:43.878Z,100254.28
2023-03-16T16:28:16.766Z,100262.03
2023-03-16T16:30:48.812Z,100260.59
2023-03-16T16:33:29.501Z,100272.66
2023-03-16T16:36:07.261Z,100253.63
2023-03-16T16:38:36.512Z,100244.78
2023-03-16T16:41:10.143Z,100235.13
2023-03-16T16:43:42.557Z,100261.56
2023-03-16T16:46:16.470Z,100246.75
2023-03-16T16:48:51.406Z,100210.94
2023-03-16T16:51:26.461Z,100257.13
2023-03-16T16:54:00.373Z,100261.19
2023-03-16T16:56:31.998Z,100257.28
2023-03-16T16:59:02.906Z,100256.53
2023-03-16T17:01:36.497Z,100263.63
2023-03-16T17:04:15.854Z,100269.56
2023-03-16T17:06:44.437Z,100260.06
2023-03-16T17:09:15.674Z,100259.91
2023-03-16T17:11:46.469Z,100259.69
2023-03-16T17:14:18.915Z,100263.91
2023-03-16T17:16:48.744Z,100240.47
2023-03-16T17:19:23.332Z,100212.69
2023-03-16T17:21:52.253Z,100254.72
2023-03-16T17:24:22.158Z,100266.44
2023-03-16T17:26:54.921Z,100268.19
2023-03-16T17:29:35.051Z,100259.25
2023-03-16T17:32:05.796Z,100265.34
2023-03-16T17:34:46.013Z,100219.25
2023-03-16T17:37:17.226Z,100263.63
2023-03-16T17:39:47.004Z,100242.59
2023-03-16T17:42:23.226Z,100252.03
2023-03-16T17:44:56.064Z,100258.72
2023-03-16T17:47:27.991Z,100234.00
2023-03-16T17:50:04.918Z,100212.81
2023-03-16T17:52:34.283Z,100259.19
2023-03-16T17:55:04.525Z,100272.69
2023-03-16T17:57:35.685Z,100271.63
2023-03-16T18:00:19.131Z,100253.13
2023-03-16T18:02:55.259Z,100260.44
2023-03-16T18:05:28.155Z,100234.84
2023-03-16T18:08:04.862Z,100222.19
2023-03-16T18:10:36.879Z,100255.09
2023-03-16T18:13:09.183Z,100264.06
2023-03-16T18:15:40.207Z,100232.00
2023-03-16T18:18:09.248Z,100255.16
2023-03-16T18:20:42.783Z,100210.19
2023-03-16T18:23:18.786Z,100247.25
2023-03-16T18:25:50.438Z,100231.84
2023-03-16T18:28:20.701Z,100206.28
2023-03-16T18:30:57.454Z,100242.69
2023-03-16T18:33:28.723Z,100247.88
2023-03-16T18:36:01.022Z,100239.75
2023-03-16T18:38:32.513Z,100243.47
2023-03-16T18:41:04.606Z,100231.84
2023-03-16T18:43:34.593Z,100220.63
2023-03-16T18:46:02.999Z,100248.44
2023-03-16T18:48:38.198Z,100236.19
2023-03-16T18:54:34.056Z,100240.78
2023-03-16T18:57:14.866Z,100234.94
2023-03-16T19:02:42.873Z,100214.97
2023-03-16T19:05:18.757Z,100200.22
2023-03-16T19:08:09.407Z,100237.88
2023-03-16T19:10:49.263Z,100256.41
2023-03-16T19:13:21.847Z,100254.31
2023-03-16T19:15:55.029Z,100207.50
2023-03-16T19:18:26.273Z,100252.66
2023-03-16T19:20:58.890Z,100195.88
2023-03-16T19:23:56.470Z,100252.84
2023-03-16T19:26:35.023Z,100256.78
2023-03-16T19:29:10.810Z,100167.06
2023-03-16T19:31:55.086Z,100234.94
2023-03-16T19:40:14.379Z,100212.69
2023-03-16T19:43:00.397Z,100183.56
2023-03-16T19:45:46.640Z,100178.94
2023-03-16T19:48:22.502Z,100232.44
2023-03-16T19:51:02.937Z,100233.47
2023-03-16T19:53:36.083Z,100152.66
2023-03-16T19:56:17.168Z,100215.38
2023-03-16T19:58:50.927Z,100211.84
2023-03-16T20:01:22.614Z,100221.81
2023-03-16T20:03:55.641Z,100178.31
2023-03-16T20:06:28.372Z,100237.44
2023-03-16T20:09:04.400Z,100214.56
2023-03-16T20:14:41.110Z,100200.13
2023-03-16T20:17:33.217Z,100223.19
2023-03-16T20:20:17.536Z,100220.47
2023-03-16T20:25:35.587Z,100220.25
2023-03-16T20:28:18.120Z,100205.06
2023-03-16T20:30:51.783Z,100210.03
2023-03-16T20:33:24.386Z,100193.41
2023-03-16T20:35:55.259Z,100214.19
2023-03-16T20:38:25.831Z,100208.59
2023-03-16T20:40:56.093Z,100186.13
2023-03-16T20:43:28.653Z,100191.47
2023-03-16T20:46:07.053Z,100191.06
2023-03-16T20:48:39.017Z,100200.63
2023-03-16T20:51:15.092Z,100209.53
2023-03-16T20:53:45.435Z,100193.28
2023-03-16T20:56:18.703Z,100169.03
2023-03-16T20:58:56.433Z,100199.81
2023-03-16T21:01:28.150Z,100186.28
2023-03-16T21:04:00.588Z,100203.59
2023-03-16T21:06:46.738Z,100206.91
2023-03-16T21:09:15.405Z,100199.06
2023-03-16T21:11:45.842Z,100197.59
2023-03-16T21:14:19.494Z,100192.19
2023-03-16T21:16:49.344Z,100155.09
2023-03-16T21:19:19.822Z,100196.47
2023-03-16T21:21:48.209Z,100189.66
2023-03-16T21:24:19.304Z,100123.38
2023-03-16T21:26:55.377Z,100181.78
2023-03-16T21:29:26.538Z,100194.44
2023-03-16T21:31:55.710Z,100136.97
2023-03-16T21:34:34.297Z,100185.09
2023-03-16T21:37:15.150Z,100185.13
2023-03-16T21:39:43.369Z,100181.38
2023-03-16T21:42:29.270Z,100181.94
2023-03-16T21:45:01.986Z,100184.81
2023-03-16T21:47:39.727Z,100194.53
2023-03-16T21:50:16.925Z,100149.38
2023-03-16T21:52:49.775Z,100178.72
2023-03-16T21:58:12.583Z,100096.38
2023-03-16T22:00:42.964Z,100169.22
2023-03-16T22:03:47.975Z,100173.38
2023-03-16T22:06:24.085Z,100157.78
2023-03-16T22:08:53.160Z,100121.13
2023-03-16T22:11:30.410Z,100141.34
2023-03-16T22:14:01.912Z,100047.63
2023-03-16T22:16:38.429Z,100141.81
2023-03-16T22:19:08.062Z,100156.16
2023-03-16T22:21:37.810Z,100138.91
2023-03-16T22:24:10.168Z,100150.97
2023-03-16T22:26:41.522Z,100161.66
2023-03-16T22:29:31.740Z,100157.84
2023-03-16T22:32:09.370Z,100133.22
2023-03-16T22:34:43.242Z,100150.72
2023-03-16T22:37:17.928Z,100128.69
2023-03-16T22:39:47.006Z,100123.78
2023-03-16T22:42:30.432Z,100128.72
2023-03-16T22:45:02.732Z,100118.75
2023-03-16T22:47:37.141Z,100060.25
2023-03-16T22:50:07.366Z,100118.72
2023-03-16T22:52:39.058Z,100137.44
2023-03-16T22:55:09.360Z,100136.88
2023-03-16T22:57:41.421Z,100137.47
2023-03-16T23:00:21.368Z,100135.19
2023-03-16T23:02:51.671Z,100134.38
2023-03-16T23:05:22.761Z,100090.19
2023-03-16T23:07:52.572Z,100131.63
2023-03-16T23:10:23.834Z,100110.06
2023-03-16T23:12:55.133Z,100125.47
2023-03-16T23:15:26.118Z,100112.81
2023-03-16T23:17:58.250Z,100112.84
2023-03-16T23:20:31.342Z,100103.47
2023-03-16T23:23:01.396Z,100094.09
2023-03-16T23:25:32.091Z,100115.16
2023-03-16T23:28:03.369Z,100119.56
2023-03-16T23:30:46.788Z,100116.84
2023-03-16T23:33:17.728Z,100108.19
2023-03-16T23:35:49.235Z,100114.00
2023-03-16T23:38:17.359Z,100121.69
2023-03-16T23:40:51.580Z,100115.06
2023-03-16T23:43:19.888Z,100088.47
2023-03-16T23:45:50.082Z,100075.94
2023-03-16T23:48:27.591Z,100104.47
2023-03-16T23:50:58.097Z,100096.78
2023-03-16T23:53:27.295Z,100044.41
2023-03-16T23:55:56.689Z,100094.56
2023-03-16T23:58:25.554Z,100089.59
